Skidegate, Canada
Current Conditions -  °F | °C
As of 8:08 PM on Wednesday 22 Oct 2014 (Local Time) from CYZP Reporting Station
Broken Clouds Broken Clouds  
Wind Chill: 44°   Ceiling: 10000
Heat Index: 46°   Visibility: 9mi
Dew Point: 45°   Wind: 6mph
Humidity: 93%   Direction: 170°S
Pressure: 29.27"   Gusts: NA
Location:  53.27°N, 131.99°W
Report Text: CYZP 230308Z AUTO 17005KT 9SM SCT050 SCT065 BKN100 BKN120 08/07 A2927 RMK SLP911
Loading
Personal Weather Stations






























Interactive Weather Map
Tropical Storm Tracking
New forecast layout! Learn more

10-Day Weather Forecast

Advertisements
Track Severe Weather on mobile